Fort Supply, Oklahoma
Current Conditions -  °F | °C
As of 1:55 AM on Friday 19 Dec 2014 (Local Time) from KWWR Reporting Station
Moderate Fog Moderate Fog  
Wind Chill: 32°   Ceiling: 200
Heat Index: 36°   Visibility: 0.25mi
Dew Point: 34°   Wind: 5mph
Humidity: 93%   Direction: 120°ESE
Pressure: 30.21"   Gusts: NA
Location:  36.57°N, 99.57°W
Report Text: KWWR 190755Z AUTO 12004KT 1/4SM FG OVC002 02/01 A3021 RMK AO2
Loading
Personal Weather Stations






























Interactive Weather Map New forecast layout! Learn more

10-Day Weather Forecast

Advertisements
Track Severe Weather on mobile